createdAt,value
2022-10-05T00:00:49.024Z,15.13
2022-10-05T00:03:15.537Z,15.13
2022-10-05T00:05:42.332Z,15.13
2022-10-05T00:08:15.341Z,15.12
2022-10-05T00:10:43.092Z,15.13
2022-10-05T00:13:25.118Z,15.12
2022-10-05T00:15:59.293Z,15.11
2022-10-05T00:18:27.173Z,15.10
2022-10-05T00:20:54.311Z,15.10
2022-10-05T00:23:31.038Z,15.10
2022-10-05T00:26:09.759Z,15.11
2022-10-05T00:28:36.184Z,15.11
2022-10-05T00:31:02.655Z,15.10
2022-10-05T00:33:29.292Z,15.10
2022-10-05T00:35:55.671Z,15.08
2022-10-05T00:38:22.567Z,15.08
2022-10-05T00:41:02.553Z,15.06
2022-10-05T00:43:59.693Z,15.07
2022-10-05T00:47:02.955Z,15.07
2022-10-05T00:49:53.363Z,15.06
2022-10-05T00:52:39.904Z,15.05
2022-10-05T00:55:25.061Z,15.04
2022-10-05T00:58:02.210Z,15.04
2022-10-05T01:00:28.923Z,15.04
2022-10-05T01:03:12.135Z,15.04
2022-10-05T01:06:33.836Z,15.04
2022-10-05T01:09:05.940Z,15.02
2022-10-05T01:11:52.859Z,15.01
2022-10-05T01:14:27.321Z,14.97
2022-10-05T01:17:18.631Z,14.92
2022-10-05T01:19:59.851Z,14.90
2022-10-05T01:23:03.359Z,14.89
2022-10-05T01:25:54.811Z,14.89
2022-10-05T01:28:37.782Z,14.90
2022-10-05T01:31:37.131Z,14.89
2022-10-05T01:34:29.297Z,14.86
2022-10-05T01:37:01.116Z,14.84
2022-10-05T01:39:45.852Z,14.83
2022-10-05T01:42:21.274Z,14.79
2022-10-05T01:45:21.686Z,14.74
2022-10-05T01:47:52.902Z,14.72
2022-10-05T01:50:50.082Z,14.70
2022-10-05T01:53:37.105Z,14.66
2022-10-05T01:56:30.816Z,14.63
2022-10-05T01:59:27.548Z,14.62
2022-10-05T02:02:14.238Z,14.60
2022-10-05T02:05:02.981Z,14.59
2022-10-05T02:07:39.986Z,14.57
2022-10-05T02:10:20.476Z,14.55
2022-10-05T02:12:51.663Z,14.53
2022-10-05T02:15:24.035Z,14.49
2022-10-05T02:17:56.223Z,14.48
2022-10-05T02:20:40.126Z,14.47
2022-10-05T02:23:13.664Z,14.46
2022-10-05T02:25:46.194Z,14.47
2022-10-05T02:28:18.066Z,14.46
2022-10-05T02:30:53.926Z,14.44
2022-10-05T02:33:31.869Z,14.44
2022-10-05T02:36:13.738Z,14.40
2022-10-05T02:38:54.296Z,14.36
2022-10-05T02:41:33.140Z,14.34
2022-10-05T02:44:25.585Z,14.35
2022-10-05T02:46:58.233Z,14.35
2022-10-05T02:49:43.068Z,14.35
2022-10-05T02:52:26.890Z,14.34
2022-10-05T02:55:19.382Z,14.34
2022-10-05T02:57:53.913Z,14.33
2022-10-05T03:00:23.293Z,14.33
2022-10-05T03:03:06.365Z,14.31
2022-10-05T03:05:47.178Z,14.31
2022-10-05T03:08:25.850Z,14.29
2022-10-05T03:11:25.518Z,14.29
2022-10-05T03:14:01.046Z,14.32
2022-10-05T03:16:44.684Z,14.34
2022-10-05T03:19:26.665Z,14.34
2022-10-05T03:22:08.011Z,14.36
2022-10-05T03:25:25.575Z,14.36
2022-10-05T03:28:01.091Z,14.41
2022-10-05T03:30:37.512Z,14.41
2022-10-05T03:33:22.303Z,14.42
2022-10-05T03:36:13.731Z,14.43
2022-10-05T03:38:55.305Z,14.44
2022-10-05T03:41:34.960Z,14.44
2022-10-05T03:44:16.953Z,14.46
2022-10-05T03:46:54.455Z,14.47
2022-10-05T03:49:50.018Z,14.48
2022-10-05T03:52:23.281Z,14.48
2022-10-05T03:55:00.151Z,14.47
2022-10-05T03:57:29.481Z,14.48
2022-10-05T04:00:10.043Z,14.49
2022-10-05T04:02:51.155Z,14.55
2022-10-05T04:05:35.894Z,14.55
2022-10-05T04:08:11.851Z,14.55
2022-10-05T04:10:47.020Z,14.54
2022-10-05T04:13:20.521Z,14.54
2022-10-05T04:16:04.003Z,14.54
2022-10-05T04:18:41.504Z,14.53
2022-10-05T04:21:13.869Z,14.52
2022-10-05T04:23:53.560Z,14.51
2022-10-05T04:26:30.231Z,14.51
2022-10-05T04:29:06.456Z,14.52
2022-10-05T04:31:51.971Z,14.52
2022-10-05T04:34:33.599Z,14.50
2022-10-05T04:37:06.257Z,14.49
2022-10-05T04:39:57.112Z,14.48
2022-10-05T04:42:43.615Z,14.47
2022-10-05T04:45:26.344Z,14.47
2022-10-05T04:48:37.835Z,14.45
2022-10-05T04:51:28.134Z,14.46
2022-10-05T04:53:58.839Z,14.46
2022-10-05T04:56:40.231Z,14.45
2022-10-05T04:59:27.955Z,14.46
2022-10-05T05:02:14.080Z,14.44
2022-10-05T05:04:40.365Z,14.46
2022-10-05T05:07:28.225Z,14.47
2022-10-05T05:09:57.522Z,14.47
2022-10-05T05:12:42.585Z,14.48
2022-10-05T05:15:31.100Z,14.48
2022-10-05T05:18:15.839Z,14.47
2022-10-05T05:20:56.029Z,14.48
2022-10-05T05:23:48.612Z,14.48
2022-10-05T05:26:36.817Z,14.50
2022-10-05T05:29:23.735Z,14.51
2022-10-05T05:32:03.497Z,14.49
2022-10-05T05:34:36.720Z,14.49
2022-10-05T05:37:14.267Z,14.46
2022-10-05T05:40:13.976Z,14.45
2022-10-05T05:42:48.356Z,14.43
2022-10-05T05:45:22.189Z,14.43
2022-10-05T05:47:52.753Z,14.42
2022-10-05T05:50:37.648Z,14.41
2022-10-05T05:53:17.360Z,14.41
2022-10-05T05:55:51.261Z,14.40
2022-10-05T05:58:25.399Z,14.39
2022-10-05T06:01:33.642Z,14.37
2022-10-05T06:04:09.545Z,14.38
2022-10-05T06:06:41.190Z,14.38
2022-10-05T06:09:15.078Z,14.38
2022-10-05T06:11:49.316Z,14.37
2022-10-05T06:14:31.994Z,14.38
2022-10-05T06:17:03.860Z,14.39
2022-10-05T06:19:36.240Z,14.38
2022-10-05T06:22:07.658Z,14.39
2022-10-05T06:25:05.095Z,14.39
2022-10-05T06:28:02.096Z,14.39
2022-10-05T06:30:41.290Z,14.41
2022-10-05T06:33:17.725Z,14.43
2022-10-05T06:36:21.209Z,14.44
2022-10-05T06:38:50.643Z,14.46
2022-10-05T06:41:38.692Z,14.48
2022-10-05T06:44:27.462Z,14.48
2022-10-05T06:47:21.467Z,14.49
2022-10-05T06:50:09.776Z,14.49
2022-10-05T06:52:51.198Z,14.52
2022-10-05T06:56:05.339Z,14.54
2022-10-05T06:59:01.279Z,14.55
2022-10-05T07:01:57.546Z,14.56
2022-10-05T07:04:49.559Z,14.57
2022-10-05T07:07:28.502Z,14.58
2022-10-05T07:10:17.398Z,14.60
2022-10-05T07:13:07.847Z,14.62
2022-10-05T07:15:44.725Z,14.68
2022-10-05T07:18:49.318Z,14.70
2022-10-05T07:21:30.832Z,14.73
2022-10-05T07:24:34.878Z,14.74
2022-10-05T07:27:19.430Z,14.78
2022-10-05T07:29:58.893Z,14.77
2022-10-05T07:32:34.922Z,14.78
2022-10-05T07:35:08.130Z,14.78
2022-10-05T07:37:55.811Z,14.79
2022-10-05T07:40:37.753Z,14.77
2022-10-05T07:43:19.049Z,14.77
2022-10-05T07:46:17.371Z,14.77
2022-10-05T07:49:16.142Z,14.79
2022-10-05T07:51:48.319Z,14.79
2022-10-05T07:54:26.895Z,14.82
2022-10-05T07:57:19.524Z,14.81
2022-10-05T08:00:08.882Z,14.83
2022-10-05T08:02:45.724Z,14.85
2022-10-05T08:05:15.592Z,14.88
2022-10-05T08:07:42.707Z,14.90
2022-10-05T08:10:27.849Z,14.92
2022-10-05T08:13:07.679Z,14.94
2022-10-05T08:15:40.332Z,14.94
2022-10-05T08:18:28.354Z,14.93
2022-10-05T08:20:58.801Z,14.95
2022-10-05T08:23:38.689Z,14.96
2022-10-05T08:26:17.251Z,14.99
2022-10-05T08:29:00.587Z,15.00
2022-10-05T08:31:31.790Z,15.06
2022-10-05T08:34:09.679Z,15.08
2022-10-05T08:36:38.747Z,15.08
2022-10-05T08:39:19.629Z,15.11
2022-10-05T08:42:14.072Z,15.13
2022-10-05T08:45:14.590Z,15.14
2022-10-05T08:48:23.021Z,15.17
2022-10-05T08:51:21.449Z,15.21
2022-10-05T08:54:09.671Z,15.23
2022-10-05T08:57:14.348Z,15.28
2022-10-05T09:00:02.215Z,15.30
2022-10-05T09:03:10.104Z,15.34
2022-10-05T09:05:51.393Z,15.37
2022-10-05T09:08:46.507Z,15.39
2022-10-05T09:11:38.047Z,15.46
2022-10-05T09:14:36.801Z,15.48
2022-10-05T09:17:30.643Z,15.52
2022-10-05T09:20:16.037Z,15.63
2022-10-05T09:23:00.556Z,15.68
2022-10-05T09:25:56.951Z,15.77
2022-10-05T09:28:39.133Z,15.81
2022-10-05T09:31:41.009Z,15.84
2022-10-05T09:34:47.925Z,15.91
2022-10-05T09:37:53.468Z,16.01
2022-10-05T09:40:41.611Z,16.12
2022-10-05T09:43:27.871Z,16.14
2022-10-05T09:46:33.748Z,16.23
2022-10-05T09:49:19.209Z,16.33
2022-10-05T09:52:00.416Z,16.40
2022-10-05T09:55:02.952Z,16.48
2022-10-05T09:58:02.645Z,16.50
2022-10-05T10:01:03.707Z,16.63
2022-10-05T10:04:10.130Z,16.75
2022-10-05T10:07:14.968Z,16.80
2022-10-05T10:09:59.944Z,16.88
2022-10-05T10:12:37.123Z,16.92
2022-10-05T10:15:34.871Z,16.95
2022-10-05T10:18:36.568Z,17.00
2022-10-05T10:21:30.256Z,17.02
2022-10-05T10:24:15.944Z,17.05
2022-10-05T10:26:54.340Z,17.00
2022-10-05T10:29:59.723Z,17.00
2022-10-05T10:32:38.564Z,17.04
2022-10-05T10:35:31.039Z,17.06
2022-10-05T10:38:34.701Z,16.98
2022-10-05T10:41:38.344Z,16.98
2022-10-05T10:44:26.475Z,16.97
2022-10-05T10:47:22.138Z,16.98
2022-10-05T10:50:29.163Z,16.94
2022-10-05T10:53:25.224Z,16.91
2022-10-05T10:56:13.944Z,16.94
2022-10-05T10:59:01.956Z,16.96
2022-10-05T11:01:50.148Z,16.99
2022-10-05T11:04:50.449Z,17.01
2022-10-05T11:07:34.940Z,17.02
2022-10-05T11:10:11.826Z,16.98
2022-10-05T11:13:02.847Z,16.98
2022-10-05T11:15:54.338Z,17.02
2022-10-05T11:18:29.491Z,17.06
2022-10-05T11:21:17.354Z,17.08
2022-10-05T11:23:52.888Z,17.10
2022-10-05T11:26:32.648Z,17.19
2022-10-05T11:29:14.213Z,17.18
2022-10-05T11:32:26.524Z,17.18
2022-10-05T11:35:12.494Z,17.20
2022-10-05T11:37:54.526Z,17.20
2022-10-05T11:40:43.020Z,17.22
2022-10-05T11:43:53.224Z,17.36
2022-10-05T11:46:47.960Z,17.40
2022-10-05T11:49:23.565Z,17.42
2022-10-05T11:52:17.587Z,17.45
2022-10-05T11:55:09.715Z,17.41
2022-10-05T11:57:51.709Z,17.46
2022-10-05T12:00:21.254Z,17.59
2022-10-05T12:02:59.759Z,17.73
2022-10-05T12:05:39.378Z,17.81
2022-10-05T12:08:36.665Z,17.81
2022-10-05T12:11:44.820Z,17.79
2022-10-05T12:14:21.671Z,17.80
2022-10-05T12:17:37.569Z,17.81
2022-10-05T12:20:22.669Z,17.80
2022-10-05T12:23:04.928Z,17.84
2022-10-05T12:25:44.643Z,17.90
2022-10-05T12:28:15.248Z,18.07
2022-10-05T12:31:18.025Z,18.15
2022-10-05T12:34:33.102Z,18.20
2022-10-05T12:37:36.525Z,18.33
2022-10-05T12:40:13.675Z,18.36
2022-10-05T12:43:22.053Z,18.45
2022-10-05T12:46:04.011Z,18.52
2022-10-05T12:48:40.077Z,18.52
2022-10-05T12:51:16.937Z,18.61
2022-10-05T12:53:57.440Z,18.56
2022-10-05T12:56:45.172Z,18.48
2022-10-05T12:59:28.195Z,18.52
2022-10-05T13:02:18.655Z,18.50
2022-10-05T13:04:59.585Z,18.38
2022-10-05T13:07:31.880Z,18.33
2022-10-05T13:10:10.343Z,18.24
2022-10-05T13:12:44.696Z,18.28
2022-10-05T13:15:22.415Z,18.32
2022-10-05T13:18:12.980Z,18.33
2022-10-05T13:20:46.865Z,18.37
2022-10-05T13:23:25.105Z,18.37
2022-10-05T13:26:08.831Z,18.38
2022-10-05T13:29:02.599Z,18.36
2022-10-05T13:31:37.469Z,18.32
2022-10-05T13:34:12.927Z,18.31
2022-10-05T13:36:58.763Z,18.29
2022-10-05T13:39:49.092Z,18.32
2022-10-05T13:42:20.153Z,18.33
2022-10-05T13:44:59.058Z,18.46
2022-10-05T13:47:38.999Z,18.51
2022-10-05T13:50:23.224Z,18.57
2022-10-05T13:53:28.215Z,18.58
2022-10-05T13:56:12.171Z,18.69
2022-10-05T13:58:47.815Z,18.71
2022-10-05T14:01:41.590Z,18.67
2022-10-05T14:04:19.783Z,18.76
2022-10-05T14:06:47.916Z,18.69
2022-10-05T14:09:20.040Z,18.66
2022-10-05T14:12:11.990Z,18.80
2022-10-05T14:14:49.145Z,18.88
2022-10-05T14:17:36.009Z,18.92
2022-10-05T14:20:18.723Z,19.05
2022-10-05T14:22:50.273Z,19.13
2022-10-05T14:25:19.238Z,18.94
2022-10-05T14:28:25.223Z,18.89
2022-10-05T14:31:09.132Z,18.81
2022-10-05T14:33:36.290Z,18.66
2022-10-05T14:36:03.655Z,18.56
2022-10-05T14:38:35.221Z,18.57
2022-10-05T14:41:19.763Z,18.47
2022-10-05T14:44:13.474Z,18.40
2022-10-05T14:46:52.936Z,18.34
2022-10-05T14:49:29.207Z,18.26
2022-10-05T14:51:56.696Z,18.16
2022-10-05T14:55:01.009Z,18.11
2022-10-05T14:58:02.338Z,18.11
2022-10-05T15:00:33.763Z,18.08
2022-10-05T15:03:05.889Z,18.07
2022-10-05T15:05:43.858Z,18.02
2022-10-05T15:08:44.968Z,18.18
2022-10-05T15:11:19.476Z,18.11
2022-10-05T15:13:49.057Z,17.99
2022-10-05T15:16:26.382Z,17.88
2022-10-05T15:19:12.852Z,17.81
2022-10-05T15:21:57.477Z,17.73
2022-10-05T15:24:26.616Z,17.67
2022-10-05T15:27:02.125Z,17.60
2022-10-05T15:30:24.510Z,17.54
2022-10-05T15:33:25.281Z,17.49
2022-10-05T15:36:09.423Z,17.45
2022-10-05T15:38:49.969Z,17.41
2022-10-05T15:41:46.678Z,17.41
2022-10-05T15:44:41.809Z,17.42
2022-10-05T15:47:25.533Z,17.39
2022-10-05T15:49:57.412Z,17.35
2022-10-05T15:52:43.928Z,17.32
2022-10-05T15:55:22.570Z,17.29
2022-10-05T15:58:14.831Z,17.26
2022-10-05T16:00:47.927Z,17.26
2022-10-05T16:03:44.432Z,17.27
2022-10-05T16:06:32.517Z,17.22
2022-10-05T16:09:42.664Z,17.21
2022-10-05T16:12:21.504Z,17.16
2022-10-05T16:14:56.791Z,17.10
2022-10-05T16:18:00.964Z,17.05
2022-10-05T16:20:49.663Z,17.02
2022-10-05T16:23:48.575Z,16.98
2022-10-05T16:26:31.660Z,16.94
2022-10-05T16:29:18.989Z,16.90
2022-10-05T16:31:59.046Z,16.88
2022-10-05T16:34:54.314Z,16.87
2022-10-05T16:37:50.226Z,16.84
2022-10-05T16:40:44.415Z,16.79
2022-10-05T16:43:52.461Z,16.77
2022-10-05T16:46:35.764Z,16.71
2022-10-05T16:49:19.554Z,16.68
2022-10-05T16:52:02.927Z,16.66
2022-10-05T16:54:41.357Z,16.65
2022-10-05T16:57:22.237Z,16.62
2022-10-05T17:00:13.449Z,16.60
2022-10-05T17:03:08.653Z,16.58
2022-10-05T17:06:00.150Z,16.58
2022-10-05T17:08:49.991Z,16.55
2022-10-05T17:11:55.429Z,16.55
2022-10-05T17:14:40.727Z,16.54
2022-10-05T17:17:27.864Z,16.52
2022-10-05T17:20:07.127Z,16.52
2022-10-05T17:22:39.956Z,16.51
2022-10-05T17:25:15.369Z,16.51
2022-10-05T17:28:36.189Z,16.50
2022-10-05T17:31:13.327Z,16.47
2022-10-05T17:34:01.492Z,16.47
2022-10-05T17:36:49.271Z,16.45
2022-10-05T17:39:42.951Z,16.44
2022-10-05T17:42:34.281Z,16.44
2022-10-05T17:45:20.635Z,16.43
2022-10-05T17:48:11.015Z,16.43
2022-10-05T17:51:00.382Z,16.42
2022-10-05T17:54:03.962Z,16.43
2022-10-05T17:56:50.367Z,16.43
2022-10-05T17:59:46.493Z,16.44
2022-10-05T18:02:36.359Z,16.43
2022-10-05T18:05:03.530Z,16.44
2022-10-05T18:07:32.154Z,16.43
2022-10-05T18:10:15.522Z,16.44
2022-10-05T18:12:45.320Z,16.44
2022-10-05T18:15:26.860Z,16.46
2022-10-05T18:18:32.664Z,16.47
2022-10-05T18:21:22.673Z,16.47
2022-10-05T18:23:51.887Z,16.47
2022-10-05T18:26:47.623Z,16.48
2022-10-05T18:29:54.525Z,16.47
2022-10-05T18:32:42.600Z,16.48
2022-10-05T18:35:12.531Z,16.49
2022-10-05T18:38:26.426Z,16.49
2022-10-05T18:41:00.451Z,16.52
2022-10-05T18:43:38.432Z,16.53
2022-10-05T18:46:24.235Z,16.53
2022-10-05T18:49:19.052Z,16.53
2022-10-05T18:51:51.698Z,16.57
2022-10-05T18:54:46.547Z,16.58
2022-10-05T18:57:46.123Z,16.59
2022-10-05T19:00:23.368Z,16.60
2022-10-05T19:02:57.134Z,16.61
2022-10-05T19:05:49.022Z,16.62
2022-10-05T19:08:39.251Z,16.63
2022-10-05T19:11:27.993Z,16.65
2022-10-05T19:14:17.357Z,16.70
2022-10-05T19:16:52.875Z,16.75
2022-10-05T19:19:41.020Z,16.74
2022-10-05T19:22:58.800Z,16.71
2022-10-05T19:25:44.496Z,16.68
2022-10-05T19:28:20.689Z,16.69
2022-10-05T19:30:47.065Z,16.72
2022-10-05T19:33:50.537Z,16.74
2022-10-05T19:36:59.454Z,16.73
2022-10-05T19:39:37.106Z,16.76
2022-10-05T19:42:21.292Z,16.76
2022-10-05T19:45:00.015Z,16.74
2022-10-05T19:47:47.438Z,16.75
2022-10-05T19:50:26.683Z,16.47
2022-10-05T19:53:24.134Z,16.03
2022-10-05T19:55:50.721Z,15.68
2022-10-05T19:58:25.962Z,15.36
2022-10-05T20:00:58.548Z,15.16
2022-10-05T20:03:29.288Z,15.09
2022-10-05T20:06:03.524Z,14.88
2022-10-05T20:08:49.910Z,14.74
2022-10-05T20:11:22.131Z,14.66
2022-10-05T20:14:03.780Z,14.62
2022-10-05T20:16:52.953Z,14.50
2022-10-05T20:19:56.125Z,14.49
2022-10-05T20:22:26.762Z,14.43
2022-10-05T20:24:58.483Z,14.32
2022-10-05T20:27:39.807Z,14.29
2022-10-05T20:30:07.949Z,14.29
2022-10-05T20:32:34.329Z,14.26
2022-10-05T20:35:00.860Z,14.28
2022-10-05T20:37:27.216Z,14.27
2022-10-05T20:39:53.617Z,14.22
2022-10-05T20:42:21.176Z,14.24
2022-10-05T20:44:51.776Z,14.28
2022-10-05T20:47:21.038Z,14.27
2022-10-05T20:49:47.466Z,14.23
2022-10-05T20:52:15.865Z,14.22
2022-10-05T20:54:42.471Z,14.19
2022-10-05T20:57:09.800Z,14.16
2022-10-05T20:59:36.886Z,14.17
2022-10-05T21:02:05.020Z,14.19
2022-10-05T21:04:41.015Z,14.15
2022-10-05T21:07:10.719Z,14.14
2022-10-05T21:09:39.118Z,14.13
2022-10-05T21:12:05.526Z,14.15
2022-10-05T21:14:34.558Z,14.14
2022-10-05T21:17:01.849Z,14.08
2022-10-05T21:19:35.314Z,14.06
2022-10-05T21:22:02.788Z,14.00
2022-10-05T21:24:29.371Z,13.96
2022-10-05T21:26:57.458Z,13.90
2022-10-05T21:29:24.972Z,13.92
2022-10-05T21:31:51.460Z,13.92
2022-10-05T21:34:18.013Z,13.85
2022-10-05T21:36:44.599Z,13.79
2022-10-05T21:39:14.364Z,13.77
2022-10-05T21:41:40.939Z,13.72
2022-10-05T21:44:07.473Z,13.71
2022-10-05T21:46:36.076Z,13.71
2022-10-05T21:49:02.812Z,13.69
2022-10-05T21:51:29.488Z,13.62
2022-10-05T21:54:02.789Z,13.55
2022-10-05T21:56:34.926Z,13.56
2022-10-05T21:59:09.978Z,13.51
2022-10-05T22:01:36.714Z,13.47
2022-10-05T22:04:04.950Z,13.40
2022-10-05T22:06:32.036Z,13.32
2022-10-05T22:08:59.501Z,13.22
2022-10-05T22:11:27.289Z,13.19
2022-10-05T22:13:53.732Z,13.11
2022-10-05T22:16:23.678Z,13.12
2022-10-05T22:18:50.719Z,13.06
2022-10-05T22:21:17.514Z,13.01
2022-10-05T22:23:45.946Z,12.97
2022-10-05T22:26:14.245Z,12.93
2022-10-05T22:28:42.565Z,12.95
2022-10-05T22:31:10.567Z,12.96
2022-10-05T22:33:39.775Z,12.93
2022-10-05T22:36:07.949Z,12.88
2022-10-05T22:38:34.541Z,12.80
2022-10-05T22:41:03.792Z,12.78
2022-10-05T22:43:30.371Z,12.73
2022-10-05T22:45:57.175Z,12.71
2022-10-05T22:48:23.557Z,12.70
2022-10-05T22:50:50.165Z,12.71
2022-10-05T22:53:16.851Z,12.67
2022-10-05T22:55:45.966Z,12.68
2022-10-05T22:58:12.545Z,12.71
2022-10-05T23:00:57.482Z,12.73
2022-10-05T23:03:25.867Z,12.71
2022-10-05T23:06:04.588Z,12.70
2022-10-05T23:08:32.634Z,12.67
2022-10-05T23:11:10.092Z,12.67
2022-10-05T23:13:36.917Z,12.68
2022-10-05T23:16:17.134Z,12.67
2022-10-05T23:18:44.817Z,12.66
2022-10-05T23:21:11.607Z,12.68
2022-10-05T23:23:40.272Z,12.64
2022-10-05T23:26:09.026Z,12.64
2022-10-05T23:28:35.675Z,12.64
2022-10-05T23:31:05.140Z,12.65
2022-10-05T23:33:32.135Z,12.67
2022-10-05T23:36:04.743Z,12.68
2022-10-05T23:38:31.611Z,12.70
2022-10-05T23:41:02.583Z,12.70
2022-10-05T23:43:29.352Z,12.69
2022-10-05T23:45:57.177Z,12.70
2022-10-05T23:48:23.998Z,12.69
2022-10-05T23:50:50.743Z,12.71
2022-10-05T23:53:18.716Z,12.68
2022-10-05T23:55:45.941Z,12.64
2022-10-05T23:58:12.385Z,12.59
